sensor_id;sensor_type;location;lat;lon;timestamp;P1;durP1;ratioP1;P2;durP2;ratioP2
9409;SDS011;4744;52.576;13.568;2023-03-01T00:01:02;4.40;;;4.00;;
9409;SDS011;4744;52.576;13.568;2023-03-01T00:03:30;5.53;;;3.90;;
9409;SDS011;4744;52.576;13.568;2023-03-01T00:05:57;4.37;;;3.90;;
9409;SDS011;4744;52.576;13.568;2023-03-01T00:08:25;4.87;;;4.37;;
9409;SDS011;4744;52.576;13.568;2023-03-01T00:10:59;4.20;;;3.80;;
9409;SDS011;4744;52.576;13.568;2023-03-01T00:13:27;4.50;;;3.80;;
9409;SDS011;4744;52.576;13.568;2023-03-01T00:15:54;3.73;;;3.40;;
9409;SDS011;4744;52.576;13.568;2023-03-01T00:18:23;7.00;;;4.30;;
9409;SDS011;4744;52.576;13.568;2023-03-01T00:20:50;4.83;;;4.33;;
9409;SDS011;4744;52.576;13.568;2023-03-01T00:23:17;7.03;;;4.33;;
9409;SDS011;4744;52.576;13.568;2023-03-01T00:25:44;4.60;;;4.20;;
9409;SDS011;4744;52.576;13.568;2023-03-01T00:28:11;4.97;;;4.20;;
9409;SDS011;4744;52.576;13.568;2023-03-01T00:30:38;5.43;;;4.30;;
9409;SDS011;4744;52.576;13.568;2023-03-01T00:33:05;5.30;;;4.10;;
9409;SDS011;4744;52.576;13.568;2023-03-01T00:35:34;4.87;;;4.33;;
9409;SDS011;4744;52.576;13.568;2023-03-01T00:38:02;5.53;;;4.47;;
9409;SDS011;4744;52.576;13.568;2023-03-01T00:40:29;5.83;;;4.43;;
9409;SDS011;4744;52.576;13.568;2023-03-01T00:42:59;5.20;;;4.47;;
9409;SDS011;4744;52.576;13.568;2023-03-01T00:45:26;6.77;;;4.80;;
9409;SDS011;4744;52.576;13.568;2023-03-01T00:47:53;5.23;;;4.70;;
9409;SDS011;4744;52.576;13.568;2023-03-01T00:50:20;4.70;;;4.20;;
9409;SDS011;4744;52.576;13.568;2023-03-01T00:52:51;4.07;;;3.60;;
9409;SDS011;4744;52.576;13.568;2023-03-01T00:55:19;4.80;;;3.80;;
9409;SDS011;4744;52.576;13.568;2023-03-01T00:57:46;4.27;;;3.87;;
9409;SDS011;4744;52.576;13.568;2023-03-01T01:00:13;4.60;;;3.90;;
9409;SDS011;4744;52.576;13.568;2023-03-01T01:02:40;4.33;;;3.90;;
9409;SDS011;4744;52.576;13.568;2023-03-01T01:05:07;3.93;;;3.53;;
9409;SDS011;4744;52.576;13.568;2023-03-01T01:07:35;5.33;;;4.03;;
9409;SDS011;4744;52.576;13.568;2023-03-01T01:10:03;4.90;;;3.90;;
9409;SDS011;4744;52.576;13.568;2023-03-01T01:12:31;4.00;;;3.70;;
9409;SDS011;4744;52.576;13.568;2023-03-01T01:14:58;5.53;;;3.87;;
9409;SDS011;4744;52.576;13.568;2023-03-01T01:17:25;5.40;;;4.23;;
9409;SDS011;4744;52.576;13.568;2023-03-01T01:19:52;4.17;;;3.77;;
9409;SDS011;4744;52.576;13.568;2023-03-01T01:22:19;4.43;;;3.40;;
9409;SDS011;4744;52.576;13.568;2023-03-01T01:24:46;4.30;;;3.70;;
9409;SDS011;4744;52.576;13.568;2023-03-01T01:27:14;4.23;;;3.80;;
9409;SDS011;4744;52.576;13.568;2023-03-01T01:29:41;4.37;;;3.97;;
9409;SDS011;4744;52.576;13.568;2023-03-01T01:32:08;5.70;;;3.97;;
9409;SDS011;4744;52.576;13.568;2023-03-01T01:34:35;4.17;;;3.80;;
9409;SDS011;4744;52.576;13.568;2023-03-01T01:37:02;4.73;;;4.20;;
9409;SDS011;4744;52.576;13.568;2023-03-01T01:39:32;5.43;;;4.83;;
9409;SDS011;4744;52.576;13.568;2023-03-01T01:41:59;4.90;;;4.40;;
9409;SDS011;4744;52.576;13.568;2023-03-01T01:44:28;4.90;;;4.40;;
9409;SDS011;4744;52.576;13.568;2023-03-01T01:46:56;5.30;;;4.57;;
9409;SDS011;4744;52.576;13.568;2023-03-01T01:49:27;6.63;;;5.30;;
9409;SDS011;4744;52.576;13.568;2023-03-01T01:52:00;6.33;;;4.80;;
9409;SDS011;4744;52.576;13.568;2023-03-01T01:54:35;6.07;;;4.40;;
9409;SDS011;4744;52.576;13.568;2023-03-01T01:57:12;5.33;;;4.30;;
9409;SDS011;4744;52.576;13.568;2023-03-01T01:59:43;5.63;;;4.57;;
9409;SDS011;4744;52.576;13.568;2023-03-01T02:02:14;5.23;;;4.17;;
9409;SDS011;4744;52.576;13.568;2023-03-01T02:04:41;5.30;;;4.23;;
9409;SDS011;4744;52.576;13.568;2023-03-01T02:07:10;5.00;;;4.23;;
9409;SDS011;4744;52.576;13.568;2023-03-01T02:09:42;6.70;;;4.50;;
9409;SDS011;4744;52.576;13.568;2023-03-01T02:12:12;5.27;;;4.73;;
9409;SDS011;4744;52.576;13.568;2023-03-01T02:14:40;7.20;;;4.87;;
9409;SDS011;4744;52.576;13.568;2023-03-01T02:17:08;6.57;;;4.90;;
9409;SDS011;4744;52.576;13.568;2023-03-01T02:19:40;8.13;;;5.30;;
9409;SDS011;4744;52.576;13.568;2023-03-01T02:22:17;6.77;;;5.20;;
9409;SDS011;4744;52.576;13.568;2023-03-01T02:24:50;6.53;;;5.10;;
9409;SDS011;4744;52.576;13.568;2023-03-01T02:27:31;5.73;;;5.13;;
9409;SDS011;4744;52.576;13.568;2023-03-01T02:30:06;6.73;;;4.90;;
9409;SDS011;4744;52.576;13.568;2023-03-01T02:32:37;5.93;;;4.70;;
9409;SDS011;4744;52.576;13.568;2023-03-01T02:35:07;5.13;;;4.50;;
9409;SDS011;4744;52.576;13.568;2023-03-01T02:37:36;4.53;;;4.13;;
9409;SDS011;4744;52.576;13.568;2023-03-01T02:40:04;6.30;;;4.30;;
9409;SDS011;4744;52.576;13.568;2023-03-01T02:42:38;4.40;;;3.93;;
9409;SDS011;4744;52.576;13.568;2023-03-01T02:45:13;5.27;;;4.13;;
9409;SDS011;4744;52.576;13.568;2023-03-01T02:47:40;6.03;;;4.90;;
9409;SDS011;4744;52.576;13.568;2023-03-01T02:50:11;5.80;;;4.63;;
9409;SDS011;4744;52.576;13.568;2023-03-01T02:52:49;5.90;;;4.77;;
9409;SDS011;4744;52.576;13.568;2023-03-01T02:55:23;6.57;;;4.63;;
9409;SDS011;4744;52.576;13.568;2023-03-01T02:57:50;4.87;;;4.20;;
9409;SDS011;4744;52.576;13.568;2023-03-01T03:00:20;4.97;;;4.37;;
9409;SDS011;4744;52.576;13.568;2023-03-01T03:02:51;6.47;;;4.17;;
9409;SDS011;4744;52.576;13.568;2023-03-01T03:05:22;4.73;;;4.13;;
9409;SDS011;4744;52.576;13.568;2023-03-01T03:07:51;5.03;;;4.07;;
9409;SDS011;4744;52.576;13.568;2023-03-01T03:10:19;4.63;;;3.70;;
9409;SDS011;4744;52.576;13.568;2023-03-01T03:12:48;4.43;;;3.87;;
9409;SDS011;4744;52.576;13.568;2023-03-01T03:15:16;4.87;;;4.33;;
9409;SDS011;4744;52.576;13.568;2023-03-01T03:17:45;4.77;;;4.23;;
9409;SDS011;4744;52.576;13.568;2023-03-01T03:20:12;5.53;;;4.17;;
9409;SDS011;4744;52.576;13.568;2023-03-01T03:22:44;5.37;;;4.20;;
9409;SDS011;4744;52.576;13.568;2023-03-01T03:25:11;4.77;;;4.13;;
9409;SDS011;4744;52.576;13.568;2023-03-01T03:27:39;4.47;;;3.80;;
9409;SDS011;4744;52.576;13.568;2023-03-01T03:30:08;5.00;;;4.00;;
9409;SDS011;4744;52.576;13.568;2023-03-01T03:32:37;4.77;;;4.23;;
9409;SDS011;4744;52.576;13.568;2023-03-01T03:35:07;4.83;;;4.20;;
9409;SDS011;4744;52.576;13.568;2023-03-01T03:37:35;6.00;;;5.00;;
9409;SDS011;4744;52.576;13.568;2023-03-01T03:40:20;6.77;;;4.73;;
9409;SDS011;4744;52.576;13.568;2023-03-01T03:42:47;6.10;;;5.07;;
9409;SDS011;4744;52.576;13.568;2023-03-01T03:45:14;5.60;;;4.60;;
9409;SDS011;4744;52.576;13.568;2023-03-01T03:47:41;6.37;;;4.43;;
9409;SDS011;4744;52.576;13.568;2023-03-01T03:50:11;4.60;;;4.10;;
9409;SDS011;4744;52.576;13.568;2023-03-01T03:52:39;6.03;;;5.40;;
9409;SDS011;4744;52.576;13.568;2023-03-01T03:55:07;4.50;;;4.10;;
9409;SDS011;4744;52.576;13.568;2023-03-01T03:57:36;4.70;;;4.30;;
9409;SDS011;4744;52.576;13.568;2023-03-01T04:00:03;5.33;;;4.20;;
9409;SDS011;4744;52.576;13.568;2023-03-01T04:02:37;6.60;;;4.60;;
9409;SDS011;4744;52.576;13.568;2023-03-01T04:05:05;5.57;;;4.53;;
9409;SDS011;4744;52.576;13.568;2023-03-01T04:07:34;5.97;;;4.50;;
9409;SDS011;4744;52.576;13.568;2023-03-01T04:10:01;6.63;;;4.50;;
9409;SDS011;4744;52.576;13.568;2023-03-01T04:12:29;5.50;;;4.40;;
9409;SDS011;4744;52.576;13.568;2023-03-01T04:14:55;4.83;;;4.07;;
9409;SDS011;4744;52.576;13.568;2023-03-01T04:17:23;4.63;;;4.03;;
9409;SDS011;4744;52.576;13.568;2023-03-01T04:19:49;5.83;;;4.60;;
9409;SDS011;4744;52.576;13.568;2023-03-01T04:22:16;6.73;;;4.93;;
9409;SDS011;4744;52.576;13.568;2023-03-01T04:24:45;4.70;;;4.20;;
9409;SDS011;4744;52.576;13.568;2023-03-01T04:27:12;5.47;;;4.20;;
9409;SDS011;4744;52.576;13.568;2023-03-01T04:29:39;4.73;;;4.30;;
9409;SDS011;4744;52.576;13.568;2023-03-01T04:32:05;4.43;;;4.03;;
9409;SDS011;4744;52.576;13.568;2023-03-01T04:34:33;4.87;;;4.23;;
9409;SDS011;4744;52.576;13.568;2023-03-01T04:37:00;4.83;;;4.00;;
9409;SDS011;4744;52.576;13.568;2023-03-01T04:39:27;4.97;;;4.23;;
9409;SDS011;4744;52.576;13.568;2023-03-01T04:41:55;6.30;;;4.20;;
9409;SDS011;4744;52.576;13.568;2023-03-01T04:44:23;6.27;;;4.80;;
9409;SDS011;4744;52.576;13.568;2023-03-01T04:46:50;6.63;;;4.50;;
9409;SDS011;4744;52.576;13.568;2023-03-01T04:49:17;6.97;;;4.63;;
9409;SDS011;4744;52.576;13.568;2023-03-01T04:51:44;6.60;;;5.07;;
9409;SDS011;4744;52.576;13.568;2023-03-01T04:54:11;5.27;;;4.57;;
9409;SDS011;4744;52.576;13.568;2023-03-01T04:56:38;6.27;;;4.87;;
9409;SDS011;4744;52.576;13.568;2023-03-01T04:59:06;5.43;;;4.33;;
9409;SDS011;4744;52.576;13.568;2023-03-01T05:01:35;5.57;;;4.73;;
9409;SDS011;4744;52.576;13.568;2023-03-01T05:04:02;5.83;;;4.20;;
9409;SDS011;4744;52.576;13.568;2023-03-01T05:06:30;6.77;;;4.93;;
9409;SDS011;4744;52.576;13.568;2023-03-01T05:08:58;5.20;;;4.43;;
9409;SDS011;4744;52.576;13.568;2023-03-01T05:11:25;5.53;;;4.67;;
9409;SDS011;4744;52.576;13.568;2023-03-01T05:13:56;4.70;;;4.20;;
9409;SDS011;4744;52.576;13.568;2023-03-01T05:16:25;4.70;;;3.83;;
9409;SDS011;4744;52.576;13.568;2023-03-01T05:18:52;4.77;;;4.00;;
9409;SDS011;4744;52.576;13.568;2023-03-01T05:21:20;5.53;;;4.57;;
9409;SDS011;4744;52.576;13.568;2023-03-01T05:23:47;5.80;;;4.20;;
9409;SDS011;4744;52.576;13.568;2023-03-01T05:26:14;5.77;;;4.23;;
9409;SDS011;4744;52.576;13.568;2023-03-01T05:28:42;5.23;;;4.13;;
9409;SDS011;4744;52.576;13.568;2023-03-01T05:31:09;5.00;;;4.33;;
9409;SDS011;4744;52.576;13.568;2023-03-01T05:33:38;5.73;;;4.33;;
9409;SDS011;4744;52.576;13.568;2023-03-01T05:36:06;5.50;;;4.50;;
9409;SDS011;4744;52.576;13.568;2023-03-01T05:38:34;5.20;;;4.50;;
9409;SDS011;4744;52.576;13.568;2023-03-01T05:41:01;5.03;;;4.53;;
9409;SDS011;4744;52.576;13.568;2023-03-01T05:43:29;5.40;;;4.70;;
9409;SDS011;4744;52.576;13.568;2023-03-01T05:45:58;6.37;;;4.83;;
9409;SDS011;4744;52.576;13.568;2023-03-01T05:48:26;5.03;;;4.37;;
9409;SDS011;4744;52.576;13.568;2023-03-01T05:50:54;4.53;;;4.13;;
9409;SDS011;4744;52.576;13.568;2023-03-01T05:53:21;4.40;;;4.00;;
9409;SDS011;4744;52.576;13.568;2023-03-01T05:55:48;4.90;;;4.40;;
9409;SDS011;4744;52.576;13.568;2023-03-01T05:58:17;5.57;;;4.70;;
9409;SDS011;4744;52.576;13.568;2023-03-01T06:00:45;6.00;;;5.10;;
9409;SDS011;4744;52.576;13.568;2023-03-01T06:03:14;7.93;;;5.70;;
9409;SDS011;4744;52.576;13.568;2023-03-01T06:05:42;6.00;;;5.37;;
9409;SDS011;4744;52.576;13.568;2023-03-01T06:08:11;5.97;;;5.30;;
9409;SDS011;4744;52.576;13.568;2023-03-01T06:10:38;5.60;;;5.00;;
9409;SDS011;4744;52.576;13.568;2023-03-01T06:13:06;6.50;;;5.17;;
9409;SDS011;4744;52.576;13.568;2023-03-01T06:15:33;5.67;;;5.17;;
9409;SDS011;4744;52.576;13.568;2023-03-01T06:17:59;6.73;;;5.37;;
9409;SDS011;4744;52.576;13.568;2023-03-01T06:20:27;5.00;;;4.50;;
9409;SDS011;4744;52.576;13.568;2023-03-01T06:22:55;5.73;;;4.73;;
9409;SDS011;4744;52.576;13.568;2023-03-01T06:25:24;5.73;;;4.73;;
9409;SDS011;4744;52.576;13.568;2023-03-01T06:27:52;5.30;;;4.70;;
9409;SDS011;4744;52.576;13.568;2023-03-01T06:30:20;6.10;;;5.30;;
9409;SDS011;4744;52.576;13.568;2023-03-01T06:32:48;5.80;;;4.70;;
9409;SDS011;4744;52.576;13.568;2023-03-01T06:35:16;4.97;;;4.47;;
9409;SDS011;4744;52.576;13.568;2023-03-01T06:37:44;6.97;;;4.90;;
9409;SDS011;4744;52.576;13.568;2023-03-01T06:40:12;5.93;;;4.60;;
9409;SDS011;4744;52.576;13.568;2023-03-01T06:42:42;6.00;;;5.40;;
9409;SDS011;4744;52.576;13.568;2023-03-01T06:45:13;11.47;;;6.67;;
9409;SDS011;4744;52.576;13.568;2023-03-01T06:47:40;10.33;;;6.47;;
9409;SDS011;4744;52.576;13.568;2023-03-01T06:50:07;8.03;;;6.10;;
9409;SDS011;4744;52.576;13.568;2023-03-01T06:52:35;11.13;;;6.33;;
9409;SDS011;4744;52.576;13.568;2023-03-01T06:55:02;7.40;;;5.90;;
9409;SDS011;4744;52.576;13.568;2023-03-01T06:57:30;7.80;;;5.70;;
9409;SDS011;4744;52.576;13.568;2023-03-01T06:59:58;6.20;;;5.23;;
9409;SDS011;4744;52.576;13.568;2023-03-01T07:02:25;7.97;;;6.00;;
9409;SDS011;4744;52.576;13.568;2023-03-01T07:04:52;6.60;;;5.30;;
9409;SDS011;4744;52.576;13.568;2023-03-01T07:07:19;7.77;;;5.47;;
9409;SDS011;4744;52.576;13.568;2023-03-01T07:09:46;6.77;;;5.27;;
9409;SDS011;4744;52.576;13.568;2023-03-01T07:12:14;6.47;;;5.50;;
9409;SDS011;4744;52.576;13.568;2023-03-01T07:14:41;7.00;;;5.10;;
9409;SDS011;4744;52.576;13.568;2023-03-01T07:17:11;5.30;;;4.70;;
9409;SDS011;4744;52.576;13.568;2023-03-01T07:19:38;6.53;;;4.63;;
9409;SDS011;4744;52.576;13.568;2023-03-01T07:22:05;5.53;;;4.63;;
9409;SDS011;4744;52.576;13.568;2023-03-01T07:24:34;5.00;;;4.50;;
9409;SDS011;4744;52.576;13.568;2023-03-01T07:27:01;5.00;;;4.57;;
9409;SDS011;4744;52.576;13.568;2023-03-01T07:29:28;5.10;;;4.53;;
9409;SDS011;4744;52.576;13.568;2023-03-01T07:31:55;5.27;;;4.60;;
9409;SDS011;4744;52.576;13.568;2023-03-01T07:34:23;4.77;;;4.30;;
9409;SDS011;4744;52.576;13.568;2023-03-01T07:36:50;5.97;;;4.37;;
9409;SDS011;4744;52.576;13.568;2023-03-01T07:39:17;5.88;;;4.75;;
9409;SDS011;4744;52.576;13.568;2023-03-01T07:41:44;6.93;;;5.60;;
9409;SDS011;4744;52.576;13.568;2023-03-01T07:44:11;9.15;;;6.10;;
9409;SDS011;4744;52.576;13.568;2023-03-01T07:46:38;6.47;;;5.45;;
9409;SDS011;4744;52.576;13.568;2023-03-01T07:49:05;9.75;;;6.65;;
9409;SDS011;4744;52.576;13.568;2023-03-01T07:51:33;7.93;;;6.68;;
9409;SDS011;4744;52.576;13.568;2023-03-01T07:54:00;9.98;;;7.70;;
9409;SDS011;4744;52.576;13.568;2023-03-01T07:56:27;8.35;;;6.97;;
9409;SDS011;4744;52.576;13.568;2023-03-01T07:58:54;8.60;;;7.47;;
9409;SDS011;4744;52.576;13.568;2023-03-01T08:01:21;9.68;;;7.07;;
9409;SDS011;4744;52.576;13.568;2023-03-01T08:03:48;7.18;;;6.05;;
9409;SDS011;4744;52.576;13.568;2023-03-01T08:06:16;6.90;;;5.68;;
9409;SDS011;4744;52.576;13.568;2023-03-01T08:08:45;7.03;;;5.88;;
9409;SDS011;4744;52.576;13.568;2023-03-01T08:11:12;7.33;;;5.20;;
9409;SDS011;4744;52.576;13.568;2023-03-01T08:13:41;5.07;;;4.57;;
9409;SDS011;4744;52.576;13.568;2023-03-01T08:16:10;6.55;;;5.13;;
9409;SDS011;4744;52.576;13.568;2023-03-01T08:18:38;4.95;;;4.38;;
9409;SDS011;4744;52.576;13.568;2023-03-01T08:21:06;5.22;;;4.47;;
9409;SDS011;4744;52.576;13.568;2023-03-01T08:23:33;5.65;;;4.80;;
9409;SDS011;4744;52.576;13.568;2023-03-01T08:26:06;6.28;;;4.53;;
9409;SDS011;4744;52.576;13.568;2023-03-01T08:28:34;4.63;;;3.83;;
9409;SDS011;4744;52.576;13.568;2023-03-01T08:31:01;4.90;;;3.80;;
9409;SDS011;4744;52.576;13.568;2023-03-01T08:33:28;4.30;;;3.60;;
9409;SDS011;4744;52.576;13.568;2023-03-01T08:36:02;4.38;;;3.90;;
9409;SDS011;4744;52.576;13.568;2023-03-01T08:38:32;5.00;;;4.10;;
9409;SDS011;4744;52.576;13.568;2023-03-01T08:40:59;4.78;;;4.28;;
9409;SDS011;4744;52.576;13.568;2023-03-01T08:43:28;4.75;;;4.35;;
9409;SDS011;4744;52.576;13.568;2023-03-01T08:45:55;6.20;;;4.57;;
9409;SDS011;4744;52.576;13.568;2023-03-01T08:48:22;5.38;;;4.30;;
9409;SDS011;4744;52.576;13.568;2023-03-01T08:50:49;5.97;;;4.25;;
9409;SDS011;4744;52.576;13.568;2023-03-01T08:53:16;4.85;;;4.38;;
9409;SDS011;4744;52.576;13.568;2023-03-01T08:55:43;6.20;;;4.50;;
9409;SDS011;4744;52.576;13.568;2023-03-01T08:58:10;6.03;;;4.28;;
9409;SDS011;4744;52.576;13.568;2023-03-01T09:00:38;5.05;;;4.03;;
9409;SDS011;4744;52.576;13.568;2023-03-01T09:03:06;4.43;;;4.00;;
9409;SDS011;4744;52.576;13.568;2023-03-01T09:05:33;3.97;;;3.50;;
9409;SDS011;4744;52.576;13.568;2023-03-01T09:08:01;3.95;;;3.50;;
9409;SDS011;4744;52.576;13.568;2023-03-01T09:10:28;3.70;;;3.40;;
9409;SDS011;4744;52.576;13.568;2023-03-01T09:12:55;4.38;;;3.47;;
9409;SDS011;4744;52.576;13.568;2023-03-01T09:15:22;4.15;;;3.05;;
9409;SDS011;4744;52.576;13.568;2023-03-01T09:17:50;3.20;;;2.85;;
9409;SDS011;4744;52.576;13.568;2023-03-01T09:20:17;2.97;;;2.78;;
9409;SDS011;4744;52.576;13.568;2023-03-01T09:22:44;3.50;;;3.20;;
9409;SDS011;4744;52.576;13.568;2023-03-01T09:25:11;2.90;;;2.63;;
9409;SDS011;4744;52.576;13.568;2023-03-01T09:27:38;3.42;;;3.13;;
9409;SDS011;4744;52.576;13.568;2023-03-01T09:30:06;3.15;;;2.85;;
9409;SDS011;4744;52.576;13.568;2023-03-01T09:32:34;4.38;;;3.13;;
9409;SDS011;4744;52.576;13.568;2023-03-01T09:35:02;4.40;;;3.58;;
9409;SDS011;4744;52.576;13.568;2023-03-01T09:37:31;4.13;;;3.60;;
9409;SDS011;4744;52.576;13.568;2023-03-01T09:39:58;4.07;;;3.55;;
9409;SDS011;4744;52.576;13.568;2023-03-01T09:42:25;4.10;;;3.60;;
9409;SDS011;4744;52.576;13.568;2023-03-01T09:44:57;4.25;;;3.65;;
9409;SDS011;4744;52.576;13.568;2023-03-01T09:47:28;4.45;;;3.70;;
9409;SDS011;4744;52.576;13.568;2023-03-01T09:49:58;5.43;;;3.65;;
9409;SDS011;4744;52.576;13.568;2023-03-01T09:52:34;4.18;;;3.78;;
9409;SDS011;4744;52.576;13.568;2023-03-01T09:55:08;8.70;;;3.97;;
9409;SDS011;4744;52.576;13.568;2023-03-01T09:57:39;4.70;;;3.80;;
9409;SDS011;4744;52.576;13.568;2023-03-01T10:00:27;3.50;;;3.20;;
9409;SDS011;4744;52.576;13.568;2023-03-01T10:03:01;5.45;;;3.78;;
9409;SDS011;4744;52.576;13.568;2023-03-01T10:05:41;4.80;;;3.72;;
9409;SDS011;4744;52.576;13.568;2023-03-01T10:08:23;6.00;;;3.58;;
9409;SDS011;4744;52.576;13.568;2023-03-01T10:11:04;4.93;;;3.63;;
9409;SDS011;4744;52.576;13.568;2023-03-01T10:13:43;5.38;;;3.47;;
9409;SDS011;4744;52.576;13.568;2023-03-01T10:16:19;5.70;;;3.30;;
9409;SDS011;4744;52.576;13.568;2023-03-01T10:18:52;4.38;;;3.58;;
9409;SDS011;4744;52.576;13.568;2023-03-01T10:21:23;7.53;;;3.70;;
9409;SDS011;4744;52.576;13.568;2023-03-01T10:23:52;4.22;;;3.47;;
9409;SDS011;4744;52.576;13.568;2023-03-01T10:26:32;3.45;;;3.15;;
9409;SDS011;4744;52.576;13.568;2023-03-01T10:29:10;3.55;;;3.20;;
9409;SDS011;4744;52.576;13.568;2023-03-01T10:31:41;3.63;;;3.25;;
9409;SDS011;4744;52.576;13.568;2023-03-01T10:34:11;4.53;;;3.22;;
9409;SDS011;4744;52.576;13.568;2023-03-01T10:36:42;3.70;;;2.95;;
9409;SDS011;4744;52.576;13.568;2023-03-01T10:39:14;4.22;;;2.90;;
9409;SDS011;4744;52.576;13.568;2023-03-01T10:41:54;2.90;;;2.60;;
9409;SDS011;4744;52.576;13.568;2023-03-01T10:44:36;3.78;;;2.80;;
9409;SDS011;4744;52.576;13.568;2023-03-01T10:47:11;4.28;;;2.67;;
9409;SDS011;4744;52.576;13.568;2023-03-01T10:49:51;5.47;;;2.85;;
9409;SDS011;4744;52.576;13.568;2023-03-01T10:52:22;2.70;;;2.50;;
9409;SDS011;4744;52.576;13.568;2023-03-01T10:54:52;3.97;;;2.90;;
9409;SDS011;4744;52.576;13.568;2023-03-01T10:57:27;4.75;;;2.90;;
9409;SDS011;4744;52.576;13.568;2023-03-01T11:00:17;4.50;;;2.78;;
9409;SDS011;4744;52.576;13.568;2023-03-01T11:02:50;3.00;;;2.50;;
9409;SDS011;4744;52.576;13.568;2023-03-01T11:05:37;2.75;;;2.55;;
9409;SDS011;4744;52.576;13.568;2023-03-01T11:08:25;3.20;;;2.75;;
9409;SDS011;4744;52.576;13.568;2023-03-01T11:11:03;3.83;;;2.47;;
9409;SDS011;4744;52.576;13.568;2023-03-01T11:13:31;3.20;;;2.50;;
9409;SDS011;4744;52.576;13.568;2023-03-01T11:15:59;3.00;;;2.70;;
9409;SDS011;4744;52.576;13.568;2023-03-01T11:18:27;2.72;;;2.50;;
9409;SDS011;4744;52.576;13.568;2023-03-01T11:20:56;3.75;;;2.50;;
9409;SDS011;4744;52.576;13.568;2023-03-01T11:23:27;2.70;;;2.50;;
9409;SDS011;4744;52.576;13.568;2023-03-01T11:25:55;3.17;;;2.60;;
9409;SDS011;4744;52.576;13.568;2023-03-01T11:28:25;2.65;;;2.45;;
9409;SDS011;4744;52.576;13.568;2023-03-01T11:30:55;2.80;;;2.60;;
9409;SDS011;4744;52.576;13.568;2023-03-01T11:35:55;4.43;;;2.08;;
9409;SDS011;4744;52.576;13.568;2023-03-01T11:38:30;2.47;;;2.10;;
9409;SDS011;4744;52.576;13.568;2023-03-01T11:41:01;3.15;;;2.10;;
9409;SDS011;4744;52.576;13.568;2023-03-01T11:43:33;1.98;;;1.77;;
9409;SDS011;4744;52.576;13.568;2023-03-01T11:48:58;2.25;;;2.05;;
9409;SDS011;4744;52.576;13.568;2023-03-01T11:51:37;3.88;;;2.25;;
9409;SDS011;4744;52.576;13.568;2023-03-01T11:54:18;2.47;;;2.28;;
9409;SDS011;4744;52.576;13.568;2023-03-01T11:56:54;2.30;;;2.10;;
9409;SDS011;4744;52.576;13.568;2023-03-01T11:59:30;2.55;;;2.15;;
9409;SDS011;4744;52.576;13.568;2023-03-01T12:02:36;2.97;;;2.10;;
9409;SDS011;4744;52.576;13.568;2023-03-01T12:05:20;2.72;;;2.50;;
9409;SDS011;4744;52.576;13.568;2023-03-01T12:08:04;4.93;;;2.60;;
9409;SDS011;4744;52.576;13.568;2023-03-01T12:10:38;3.20;;;2.08;;
9409;SDS011;4744;52.576;13.568;2023-03-01T12:13:30;2.38;;;2.17;;
9409;SDS011;4744;52.576;13.568;2023-03-01T12:16:14;3.92;;;2.40;;
9409;SDS011;4744;52.576;13.568;2023-03-01T12:19:01;2.53;;;2.25;;
9409;SDS011;4744;52.576;13.568;2023-03-01T12:21:55;3.13;;;2.55;;
9409;SDS011;4744;52.576;13.568;2023-03-01T12:24:36;2.22;;;2.10;;
9409;SDS011;4744;52.576;13.568;2023-03-01T12:27:26;2.42;;;2.20;;
9409;SDS011;4744;52.576;13.568;2023-03-01T12:30:21;2.47;;;2.28;;
9409;SDS011;4744;52.576;13.568;2023-03-01T12:33:02;3.70;;;2.50;;
9409;SDS011;4744;52.576;13.568;2023-03-01T12:35:49;3.00;;;2.20;;
9409;SDS011;4744;52.576;13.568;2023-03-01T12:38:39;2.55;;;2.13;;
9409;SDS011;4744;52.576;13.568;2023-03-01T12:44:01;3.97;;;2.60;;
9409;SDS011;4744;52.576;13.568;2023-03-01T12:46:38;2.30;;;2.20;;
9409;SDS011;4744;52.576;13.568;2023-03-01T12:49:18;2.92;;;2.63;;
9409;SDS011;4744;52.576;13.568;2023-03-01T12:51:51;3.38;;;2.35;;
9409;SDS011;4744;52.576;13.568;2023-03-01T12:54:26;3.22;;;2.13;;
9409;SDS011;4744;52.576;13.568;2023-03-01T12:56:56;2.50;;;2.30;;
9409;SDS011;4744;52.576;13.568;2023-03-01T12:59:28;2.65;;;2.30;;
9409;SDS011;4744;52.576;13.568;2023-03-01T13:02:02;2.10;;;1.90;;
9409;SDS011;4744;52.576;13.568;2023-03-01T13:04:40;2.28;;;2.08;;
9409;SDS011;4744;52.576;13.568;2023-03-01T13:07:28;3.17;;;2.28;;
9409;SDS011;4744;52.576;13.568;2023-03-01T13:10:02;1.85;;;1.70;;
9409;SDS011;4744;52.576;13.568;2023-03-01T13:12:42;3.30;;;2.13;;
9409;SDS011;4744;52.576;13.568;2023-03-01T13:15:27;1.88;;;1.77;;
9409;SDS011;4744;52.576;13.568;2023-03-01T13:17:57;2.00;;;1.80;;
9409;SDS011;4744;52.576;13.568;2023-03-01T13:20:26;3.47;;;1.90;;
9409;SDS011;4744;52.576;13.568;2023-03-01T13:23:07;3.13;;;2.80;;
9409;SDS011;4744;52.576;13.568;2023-03-01T13:34:44;3.50;;;2.20;;
9409;SDS011;4744;52.576;13.568;2023-03-01T13:37:18;5.32;;;2.63;;
9409;SDS011;4744;52.576;13.568;2023-03-01T13:39:51;2.40;;;2.20;;
9409;SDS011;4744;52.576;13.568;2023-03-01T13:42:29;4.05;;;2.63;;
9409;SDS011;4744;52.576;13.568;2023-03-01T13:45:03;2.05;;;1.85;;
9409;SDS011;4744;52.576;13.568;2023-03-01T13:47:40;2.88;;;2.17;;
9409;SDS011;4744;52.576;13.568;2023-03-01T13:50:16;2.42;;;2.22;;
9409;SDS011;4744;52.576;13.568;2023-03-01T13:52:48;3.53;;;2.33;;
9409;SDS011;4744;52.576;13.568;2023-03-01T13:55:18;2.83;;;2.42;;
9409;SDS011;4744;52.576;13.568;2023-03-01T13:57:48;2.40;;;2.20;;
9409;SDS011;4744;52.576;13.568;2023-03-01T14:00:26;6.28;;;2.45;;
9409;SDS011;4744;52.576;13.568;2023-03-01T14:03:03;2.75;;;2.08;;
9409;SDS011;4744;52.576;13.568;2023-03-01T14:05:33;3.45;;;2.00;;
9409;SDS011;4744;52.576;13.568;2023-03-01T14:08:02;2.95;;;2.00;;
9409;SDS011;4744;52.576;13.568;2023-03-01T14:10:31;3.85;;;2.08;;
9409;SDS011;4744;52.576;13.568;2023-03-01T14:13:09;2.13;;;1.90;;
9409;SDS011;4744;52.576;13.568;2023-03-01T14:15:50;2.78;;;2.30;;
9409;SDS011;4744;52.576;13.568;2023-03-01T14:18:32;2.25;;;2.03;;
9409;SDS011;4744;52.576;13.568;2023-03-01T14:21:13;2.20;;;2.00;;
9409;SDS011;4744;52.576;13.568;2023-03-01T14:23:41;1.90;;;1.80;;
9409;SDS011;4744;52.576;13.568;2023-03-01T14:26:09;2.80;;;1.90;;
9409;SDS011;4744;52.576;13.568;2023-03-01T14:28:37;2.88;;;2.03;;
9409;SDS011;4744;52.576;13.568;2023-03-01T14:33:59;4.07;;;2.08;;
9409;SDS011;4744;52.576;13.568;2023-03-01T14:36:28;2.95;;;1.70;;
9409;SDS011;4744;52.576;13.568;2023-03-01T14:38:56;2.22;;;1.90;;
9409;SDS011;4744;52.576;13.568;2023-03-01T14:41:29;2.08;;;1.88;;
9409;SDS011;4744;52.576;13.568;2023-03-01T14:44:00;2.85;;;1.70;;
9409;SDS011;4744;52.576;13.568;2023-03-01T14:46:30;2.13;;;1.90;;
9409;SDS011;4744;52.576;13.568;2023-03-01T14:49:01;2.67;;;1.73;;
9409;SDS011;4744;52.576;13.568;2023-03-01T14:51:31;1.63;;;1.52;;
9409;SDS011;4744;52.576;13.568;2023-03-01T14:54:02;2.13;;;1.90;;
9409;SDS011;4744;52.576;13.568;2023-03-01T14:56:42;5.30;;;2.42;;
9409;SDS011;4744;52.576;13.568;2023-03-01T14:59:10;2.38;;;1.90;;
9409;SDS011;4744;52.576;13.568;2023-03-01T15:01:38;1.90;;;1.80;;
9409;SDS011;4744;52.576;13.568;2023-03-01T15:04:07;2.17;;;1.63;;
9409;SDS011;4744;52.576;13.568;2023-03-01T15:06:40;1.92;;;1.70;;
9409;SDS011;4744;52.576;13.568;2023-03-01T15:09:11;2.75;;;1.80;;
9409;SDS011;4744;52.576;13.568;2023-03-01T15:11:42;2.60;;;1.95;;
9409;SDS011;4744;52.576;13.568;2023-03-01T15:14:25;3.20;;;1.90;;
9409;SDS011;4744;52.576;13.568;2023-03-01T15:17:13;1.73;;;1.60;;
9409;SDS011;4744;52.576;13.568;2023-03-01T15:19:47;2.03;;;1.80;;
9409;SDS011;4744;52.576;13.568;2023-03-01T15:22:17;2.50;;;1.95;;
9409;SDS011;4744;52.576;13.568;2023-03-01T15:24:46;1.90;;;1.70;;
9409;SDS011;4744;52.576;13.568;2023-03-01T15:27:15;3.33;;;2.15;;
9409;SDS011;4744;52.576;13.568;2023-03-01T15:29:48;2.17;;;1.70;;
9409;SDS011;4744;52.576;13.568;2023-03-01T15:32:27;2.90;;;1.75;;
9409;SDS011;4744;52.576;13.568;2023-03-01T15:34:55;3.10;;;2.03;;
9409;SDS011;4744;52.576;13.568;2023-03-01T15:37:40;3.10;;;1.92;;
9409;SDS011;4744;52.576;13.568;2023-03-01T15:40:20;3.33;;;1.92;;
9409;SDS011;4744;52.576;13.568;2023-03-01T15:42:56;4.75;;;2.30;;